sensor_id;sensor_type;location;lat;lon;timestamp;pressure;altitude;pressure_sealevel;temperature;humidity
2184;BME280;1098;48.940;8.962;2022-11-20T00:02:14;97974.53;;;5.35;100.00
2184;BME280;1098;48.940;8.962;2022-11-20T00:04:42;97975.34;;;5.62;100.00
2184;BME280;1098;48.940;8.962;2022-11-20T00:07:10;97960.75;;;5.38;100.00
2184;BME280;1098;48.940;8.962;2022-11-20T00:09:39;97977.44;;;5.60;100.00
2184;BME280;1098;48.940;8.962;2022-11-20T00:12:07;97968.38;;;5.34;100.00
2184;BME280;1098;48.940;8.962;2022-11-20T00:14:35;97957.03;;;5.12;100.00
2184;BME280;1098;48.940;8.962;2022-11-20T00:17:04;97972.66;;;5.42;100.00
2184;BME280;1098;48.940;8.962;2022-11-20T00:19:32;97967.72;;;5.45;100.00
2184;BME280;1098;48.940;8.962;2022-11-20T00:22:00;97970.81;;;5.49;100.00
2184;BME280;1098;48.940;8.962;2022-11-20T00:24:28;97960.91;;;5.63;100.00
2184;BME280;1098;48.940;8.962;2022-11-20T00:26:56;97974.13;;;5.38;100.00
2184;BME280;1098;48.940;8.962;2022-11-20T00:29:24;97971.63;;;5.43;100.00
2184;BME280;1098;48.940;8.962;2022-11-20T00:31:52;97971.03;;;5.28;100.00
2184;BME280;1098;48.940;8.962;2022-11-20T00:34:22;97973.28;;;5.24;100.00
2184;BME280;1098;48.940;8.962;2022-11-20T00:36:50;97978.63;;;5.04;100.00
2184;BME280;1098;48.940;8.962;2022-11-20T00:39:19;97970.00;;;5.22;100.00
2184;BME280;1098;48.940;8.962;2022-11-20T00:41:48;97970.63;;;5.17;100.00
2184;BME280;1098;48.940;8.962;2022-11-20T00:44:16;97966.31;;;5.36;100.00
2184;BME280;1098;48.940;8.962;2022-11-20T00:46:44;97976.78;;;5.25;100.00
2184;BME280;1098;48.940;8.962;2022-11-20T00:49:12;97977.81;;;5.70;100.00
2184;BME280;1098;48.940;8.962;2022-11-20T00:51:42;97975.34;;;5.02;100.00
2184;BME280;1098;48.940;8.962;2022-11-20T00:54:13;97985.59;;;4.79;100.00
2184;BME280;1098;48.940;8.962;2022-11-20T00:56:41;97991.16;;;4.84;100.00
2184;BME280;1098;48.940;8.962;2022-11-20T00:59:09;97990.97;;;4.86;100.00
2184;BME280;1098;48.940;8.962;2022-11-20T01:01:37;97989.78;;;5.28;100.00
2184;BME280;1098;48.940;8.962;2022-11-20T01:04:05;97987.28;;;5.06;100.00
2184;BME280;1098;48.940;8.962;2022-11-20T01:06:34;97990.81;;;5.27;100.00
2184;BME280;1098;48.940;8.962;2022-11-20T01:09:05;97985.84;;;5.24;100.00
2184;BME280;1098;48.940;8.962;2022-11-20T01:11:35;97987.69;;;5.63;100.00
2184;BME280;1098;48.940;8.962;2022-11-20T01:14:04;97988.75;;;5.15;100.00
2184;BME280;1098;48.940;8.962;2022-11-20T01:16:33;97994.47;;;4.99;100.00
2184;BME280;1098;48.940;8.962;2022-11-20T01:19:03;97995.53;;;5.11;100.00
2184;BME280;1098;48.940;8.962;2022-11-20T01:21:33;97997.38;;;4.98;100.00
2184;BME280;1098;48.940;8.962;2022-11-20T01:24:02;97990.41;;;5.16;100.00
2184;BME280;1098;48.940;8.962;2022-11-20T01:26:35;98004.59;;;4.97;100.00
2184;BME280;1098;48.940;8.962;2022-11-20T01:29:06;97998.66;;;5.55;100.00
2184;BME280;1098;48.940;8.962;2022-11-20T01:31:35;97999.25;;;5.17;100.00
2184;BME280;1098;48.940;8.962;2022-11-20T01:34:04;97997.00;;;5.47;100.00
2184;BME280;1098;48.940;8.962;2022-11-20T01:36:33;97976.59;;;5.20;100.00
2184;BME280;1098;48.940;8.962;2022-11-20T01:39:03;97989.78;;;5.47;100.00
2184;BME280;1098;48.940;8.962;2022-11-20T01:41:31;97988.13;;;5.66;100.00
2184;BME280;1098;48.940;8.962;2022-11-20T01:44:20;97994.69;;;6.03;100.00
2184;BME280;1098;48.940;8.962;2022-11-20T01:46:51;97981.13;;;5.52;100.00
2184;BME280;1098;48.940;8.962;2022-11-20T01:49:21;97985.06;;;5.56;100.00
2184;BME280;1098;48.940;8.962;2022-11-20T01:51:53;97983.59;;;5.47;100.00
2184;BME280;1098;48.940;8.962;2022-11-20T01:54:24;97983.41;;;5.35;100.00
2184;BME280;1098;48.940;8.962;2022-11-20T01:56:54;97977.00;;;5.43;100.00
2184;BME280;1098;48.940;8.962;2022-11-20T01:59:25;97981.13;;;5.45;100.00
2184;BME280;1098;48.940;8.962;2022-11-20T02:01:54;97975.78;;;5.59;100.00
2184;BME280;1098;48.940;8.962;2022-11-20T02:04:25;97968.34;;;5.41;100.00
2184;BME280;1098;48.940;8.962;2022-11-20T02:06:54;97966.69;;;5.27;100.00
2184;BME280;1098;48.940;8.962;2022-11-20T02:09:23;97974.34;;;5.30;100.00
2184;BME280;1098;48.940;8.962;2022-11-20T02:11:52;97976.19;;;5.29;100.00
2184;BME280;1098;48.940;8.962;2022-11-20T02:14:20;97977.00;;;5.43;100.00
2184;BME280;1098;48.940;8.962;2022-11-20T02:16:50;97976.38;;;5.08;100.00
2184;BME280;1098;48.940;8.962;2022-11-20T02:19:21;97980.31;;;5.32;100.00
2184;BME280;1098;48.940;8.962;2022-11-20T02:21:53;97978.66;;;5.37;100.00
2184;BME280;1098;48.940;8.962;2022-11-20T02:24:24;97978.88;;;5.29;100.00
2184;BME280;1098;48.940;8.962;2022-11-20T02:26:53;97985.66;;;5.25;100.00
2184;BME280;1098;48.940;8.962;2022-11-20T02:29:23;97991.44;;;5.29;100.00
2184;BME280;1098;48.940;8.962;2022-11-20T02:31:53;97986.28;;;5.34;100.00
2184;BME280;1098;48.940;8.962;2022-11-20T02:34:22;97977.81;;;5.43;100.00
2184;BME280;1098;48.940;8.962;2022-11-20T02:36:50;97985.66;;;5.58;100.00
2184;BME280;1098;48.940;8.962;2022-11-20T02:39:19;97981.13;;;5.52;100.00
2184;BME280;1098;48.940;8.962;2022-11-20T02:41:53;97966.25;;;5.76;100.00
2184;BME280;1098;48.940;8.962;2022-11-20T02:44:21;97976.97;;;5.69;100.00
2184;BME280;1098;48.940;8.962;2022-11-20T02:46:49;97965.63;;;5.80;100.00
2184;BME280;1098;48.940;8.962;2022-11-20T02:49:17;97974.50;;;5.61;100.00
2184;BME280;1098;48.940;8.962;2022-11-20T02:51:46;97980.31;;;5.58;100.00
2184;BME280;1098;48.940;8.962;2022-11-20T02:54:14;97977.19;;;6.01;100.00
2184;BME280;1098;48.940;8.962;2022-11-20T02:56:42;97966.66;;;5.99;100.00
2184;BME280;1098;48.940;8.962;2022-11-20T02:59:14;97972.03;;;5.73;100.00
2184;BME280;1098;48.940;8.962;2022-11-20T03:01:42;97968.53;;;5.72;100.00
2184;BME280;1098;48.940;8.962;2022-11-20T03:04:10;97963.16;;;5.79;100.00
2184;BME280;1098;48.940;8.962;2022-11-20T03:06:38;97963.59;;;5.76;100.00
2184;BME280;1098;48.940;8.962;2022-11-20T03:09:06;97953.84;;;5.88;100.00
2184;BME280;1098;48.940;8.962;2022-11-20T03:11:34;97951.19;;;5.81;100.00
2184;BME280;1098;48.940;8.962;2022-11-20T03:14:05;97958.22;;;5.69;100.00
2184;BME280;1098;48.940;8.962;2022-11-20T03:16:37;97954.09;;;5.67;100.00
2184;BME280;1098;48.940;8.962;2022-11-20T03:19:05;97958.00;;;5.77;100.00
2184;BME280;1098;48.940;8.962;2022-11-20T03:21:33;97950.59;;;5.79;100.00
2184;BME280;1098;48.940;8.962;2022-11-20T03:24:02;97952.63;;;5.97;100.00
2184;BME280;1098;48.940;8.962;2022-11-20T03:26:30;97952.63;;;5.91;100.00
2184;BME280;1098;48.940;8.962;2022-11-20T03:28:59;97950.78;;;5.98;100.00
2184;BME280;1098;48.940;8.962;2022-11-20T03:31:28;97951.75;;;6.10;100.00
2184;BME280;1098;48.940;8.962;2022-11-20T03:33:57;97945.00;;;6.01;100.00
2184;BME280;1098;48.940;8.962;2022-11-20T03:36:26;97939.50;;;6.34;100.00
2184;BME280;1098;48.940;8.962;2022-11-20T03:38:55;97946.03;;;6.00;100.00
2184;BME280;1098;48.940;8.962;2022-11-20T03:41:24;97940.53;;;6.26;100.00
2184;BME280;1098;48.940;8.962;2022-11-20T03:43:53;97945.88;;;6.39;100.00
2184;BME280;1098;48.940;8.962;2022-11-20T03:46:21;97937.94;;;6.06;100.00
2184;BME280;1098;48.940;8.962;2022-11-20T03:48:50;97941.22;;;6.22;100.00
2184;BME280;1098;48.940;8.962;2022-11-20T03:51:20;97945.75;;;6.21;100.00
2184;BME280;1098;48.940;8.962;2022-11-20T03:53:49;97941.03;;;6.10;100.00
2184;BME280;1098;48.940;8.962;2022-11-20T03:56:19;97939.84;;;5.93;100.00
2184;BME280;1098;48.940;8.962;2022-11-20T03:58:47;97936.47;;;6.17;100.00
2184;BME280;1098;48.940;8.962;2022-11-20T04:01:17;97941.03;;;6.03;100.00
2184;BME280;1098;48.940;8.962;2022-11-20T04:03:45;97940.09;;;6.36;100.00
2184;BME280;1098;48.940;8.962;2022-11-20T04:06:16;97940.50;;;6.39;100.00
2184;BME280;1098;48.940;8.962;2022-11-20T04:08:46;97930.63;;;6.33;100.00
2184;BME280;1098;48.940;8.962;2022-11-20T04:11:21;97933.78;;;6.62;100.00
2184;BME280;1098;48.940;8.962;2022-11-20T04:13:50;97928.00;;;6.65;100.00
2184;BME280;1098;48.940;8.962;2022-11-20T04:16:19;97929.97;;;6.76;100.00
2184;BME280;1098;48.940;8.962;2022-11-20T04:18:50;97926.66;;;6.80;100.00
2184;BME280;1098;48.940;8.962;2022-11-20T04:21:19;97922.16;;;6.68;100.00
2184;BME280;1098;48.940;8.962;2022-11-20T04:23:49;97916.66;;;6.56;100.00
2184;BME280;1098;48.940;8.962;2022-11-20T04:26:17;97922.00;;;6.94;100.00
2184;BME280;1098;48.940;8.962;2022-11-20T04:28:46;97911.50;;;6.86;100.00
2184;BME280;1098;48.940;8.962;2022-11-20T04:31:15;97909.88;;;6.85;100.00
2184;BME280;1098;48.940;8.962;2022-11-20T04:33:43;97905.75;;;6.51;100.00
2184;BME280;1098;48.940;8.962;2022-11-20T04:36:12;97908.19;;;7.15;100.00
2184;BME280;1098;48.940;8.962;2022-11-20T04:38:40;97909.59;;;6.93;100.00
2184;BME280;1098;48.940;8.962;2022-11-20T04:41:11;97909.19;;;6.65;100.00
2184;BME280;1098;48.940;8.962;2022-11-20T04:43:41;97883.78;;;6.92;100.00
2184;BME280;1098;48.940;8.962;2022-11-20T04:46:09;97901.94;;;7.21;100.00
2184;BME280;1098;48.940;8.962;2022-11-20T04:48:37;97902.25;;;7.07;100.00
2184;BME280;1098;48.940;8.962;2022-11-20T04:51:06;97902.34;;;6.69;100.00
2184;BME280;1098;48.940;8.962;2022-11-20T04:53:34;97898.97;;;6.80;100.00
2184;BME280;1098;48.940;8.962;2022-11-20T04:56:02;97900.56;;;7.12;100.00
2184;BME280;1098;48.940;8.962;2022-11-20T04:58:33;97893.34;;;7.13;100.00
2184;BME280;1098;48.940;8.962;2022-11-20T05:01:01;97892.84;;;7.22;100.00
2184;BME280;1098;48.940;8.962;2022-11-20T05:03:31;97888.56;;;7.15;100.00
2184;BME280;1098;48.940;8.962;2022-11-20T05:06:04;97889.03;;;7.55;100.00
2184;BME280;1098;48.940;8.962;2022-11-20T05:08:33;97886.56;;;7.53;100.00
2184;BME280;1098;48.940;8.962;2022-11-20T05:11:01;97888.25;;;7.05;100.00
2184;BME280;1098;48.940;8.962;2022-11-20T05:13:30;97893.94;;;7.40;100.00
2184;BME280;1098;48.940;8.962;2022-11-20T05:16:02;97891.06;;;7.35;100.00
2184;BME280;1098;48.940;8.962;2022-11-20T05:18:30;97890.31;;;7.28;100.00
2184;BME280;1098;48.940;8.962;2022-11-20T05:20:58;97860.31;;;7.31;100.00
2184;BME280;1098;48.940;8.962;2022-11-20T05:23:27;97885.44;;;7.61;100.00
2184;BME280;1098;48.940;8.962;2022-11-20T05:25:55;97887.56;;;7.34;100.00
2184;BME280;1098;48.940;8.962;2022-11-20T05:28:25;97892.94;;;7.09;100.00
2184;BME280;1098;48.940;8.962;2022-11-20T05:30:53;97886.91;;;7.39;100.00
2184;BME280;1098;48.940;8.962;2022-11-20T05:33:23;97889.22;;;7.35;100.00
2184;BME280;1098;48.940;8.962;2022-11-20T05:35:51;97889.56;;;6.96;100.00
2184;BME280;1098;48.940;8.962;2022-11-20T05:38:19;97893.28;;;7.19;100.00
2184;BME280;1098;48.940;8.962;2022-11-20T05:40:47;97891.28;;;7.08;100.00
2184;BME280;1098;48.940;8.962;2022-11-20T05:43:15;97894.50;;;7.23;100.00
2184;BME280;1098;48.940;8.962;2022-11-20T05:45:51;97887.09;;;7.19;100.00
2184;BME280;1098;48.940;8.962;2022-11-20T05:48:19;97884.56;;;7.24;100.00
2184;BME280;1098;48.940;8.962;2022-11-20T05:50:48;97893.75;;;7.35;100.00
2184;BME280;1098;48.940;8.962;2022-11-20T05:53:16;97883.94;;;7.47;100.00
2184;BME280;1098;48.940;8.962;2022-11-20T05:55:44;97880.22;;;7.48;100.00
2184;BME280;1098;48.940;8.962;2022-11-20T05:58:13;97889.88;;;7.31;100.00
2184;BME280;1098;48.940;8.962;2022-11-20T06:00:41;97886.53;;;7.35;100.00
2184;BME280;1098;48.940;8.962;2022-11-20T06:03:09;97881.75;;;7.37;100.00
2184;BME280;1098;48.940;8.962;2022-11-20T06:05:37;97883.63;;;7.37;100.00
2184;BME280;1098;48.940;8.962;2022-11-20T06:08:06;97886.00;;;7.27;100.00
2184;BME280;1098;48.940;8.962;2022-11-20T06:10:34;97881.09;;;7.42;100.00
2184;BME280;1098;48.940;8.962;2022-11-20T06:13:05;97881.56;;;7.14;100.00
2184;BME280;1098;48.940;8.962;2022-11-20T06:15:33;97876.28;;;7.26;100.00
2184;BME280;1098;48.940;8.962;2022-11-20T06:18:01;97868.53;;;7.36;100.00
2184;BME280;1098;48.940;8.962;2022-11-20T06:20:29;97874.16;;;7.52;100.00
2184;BME280;1098;48.940;8.962;2022-11-20T06:22:57;97874.03;;;7.47;100.00
2184;BME280;1098;48.940;8.962;2022-11-20T06:25:27;97873.94;;;7.11;100.00
2184;BME280;1098;48.940;8.962;2022-11-20T06:27:55;97876.31;;;7.44;100.00
2184;BME280;1098;48.940;8.962;2022-11-20T06:30:25;97875.16;;;7.33;100.00
2184;BME280;1098;48.940;8.962;2022-11-20T06:32:53;97870.59;;;7.58;100.00
2184;BME280;1098;48.940;8.962;2022-11-20T06:35:21;97869.78;;;7.33;100.00
2184;BME280;1098;48.940;8.962;2022-11-20T06:37:49;97866.78;;;7.48;100.00
2184;BME280;1098;48.940;8.962;2022-11-20T06:40:17;97870.06;;;7.68;100.00
2184;BME280;1098;48.940;8.962;2022-11-20T06:42:47;97870.38;;;7.60;100.00
2184;BME280;1098;48.940;8.962;2022-11-20T06:45:15;97867.50;;;7.55;100.00
2184;BME280;1098;48.940;8.962;2022-11-20T06:47:44;97874.91;;;7.59;100.00
2184;BME280;1098;48.940;8.962;2022-11-20T06:50:12;97873.94;;;7.11;100.00
2184;BME280;1098;48.940;8.962;2022-11-20T06:52:40;97875.75;;;7.17;100.00
2184;BME280;1098;48.940;8.962;2022-11-20T06:55:09;97869.38;;;7.54;100.00
2184;BME280;1098;48.940;8.962;2022-11-20T06:57:37;97871.41;;;7.96;100.00
2184;BME280;1098;48.940;8.962;2022-11-20T07:00:10;97871.16;;;7.42;100.00
2184;BME280;1098;48.940;8.962;2022-11-20T07:02:38;97871.47;;;7.52;100.00
2184;BME280;1098;48.940;8.962;2022-11-20T07:05:07;97876.78;;;7.59;100.00
2184;BME280;1098;48.940;8.962;2022-11-20T07:07:35;97882.31;;;7.46;100.00
2184;BME280;1098;48.940;8.962;2022-11-20T07:10:03;97889.81;;;7.37;100.00
2184;BME280;1098;48.940;8.962;2022-11-20T07:12:32;97900.78;;;7.36;100.00
2184;BME280;1098;48.940;8.962;2022-11-20T07:15:00;97881.25;;;7.47;100.00
2184;BME280;1098;48.940;8.962;2022-11-20T07:17:29;97894.84;;;7.70;100.00
2184;BME280;1098;48.940;8.962;2022-11-20T07:19:58;97892.22;;;7.45;100.00
2184;BME280;1098;48.940;8.962;2022-11-20T07:22:26;97890.06;;;7.54;100.00
2184;BME280;1098;48.940;8.962;2022-11-20T07:24:54;97899.75;;;7.12;100.00
2184;BME280;1098;48.940;8.962;2022-11-20T07:27:22;97901.59;;;7.61;100.00
2184;BME280;1098;48.940;8.962;2022-11-20T07:29:51;97897.53;;;7.52;100.00
2184;BME280;1098;48.940;8.962;2022-11-20T07:32:19;97905.06;;;7.43;100.00
2184;BME280;1098;48.940;8.962;2022-11-20T07:34:48;97905.94;;;7.37;100.00
2184;BME280;1098;48.940;8.962;2022-11-20T07:37:16;97903.38;;;7.67;100.00
2184;BME280;1098;48.940;8.962;2022-11-20T07:39:44;97905.91;;;7.62;100.00
2184;BME280;1098;48.940;8.962;2022-11-20T07:42:13;97901.25;;;7.51;100.00
2184;BME280;1098;48.940;8.962;2022-11-20T07:44:41;97908.72;;;7.49;100.00
2184;BME280;1098;48.940;8.962;2022-11-20T07:47:09;97905.91;;;7.44;100.00
2184;BME280;1098;48.940;8.962;2022-11-20T07:49:37;97901.91;;;7.89;100.00
2184;BME280;1098;48.940;8.962;2022-11-20T07:52:07;97894.13;;;7.81;100.00
2184;BME280;1098;48.940;8.962;2022-11-20T07:54:35;97894.56;;;7.97;100.00
2184;BME280;1098;48.940;8.962;2022-11-20T07:57:03;97890.38;;;8.01;100.00
2184;BME280;1098;48.940;8.962;2022-11-20T07:59:31;97895.66;;;7.71;100.00
2184;BME280;1098;48.940;8.962;2022-11-20T08:02:02;97895.09;;;7.87;100.00
2184;BME280;1098;48.940;8.962;2022-11-20T08:04:30;97899.72;;;7.80;100.00
2184;BME280;1098;48.940;8.962;2022-11-20T08:06:59;97902.47;;;7.55;100.00
2184;BME280;1098;48.940;8.962;2022-11-20T08:09:28;97902.34;;;8.05;100.00
2184;BME280;1098;48.940;8.962;2022-11-20T08:11:56;97904.59;;;7.89;100.00
2184;BME280;1098;48.940;8.962;2022-11-20T08:14:42;97906.22;;;7.90;100.00
2184;BME280;1098;48.940;8.962;2022-11-20T08:17:10;97916.22;;;7.47;100.00
2184;BME280;1098;48.940;8.962;2022-11-20T08:19:38;97923.53;;;7.58;100.00
2184;BME280;1098;48.940;8.962;2022-11-20T08:22:06;97918.75;;;7.60;100.00
2184;BME280;1098;48.940;8.962;2022-11-20T08:24:38;97926.97;;;7.65;100.00
2184;BME280;1098;48.940;8.962;2022-11-20T08:27:06;97921.38;;;7.67;100.00
2184;BME280;1098;48.940;8.962;2022-11-20T08:29:34;97932.63;;;7.57;100.00
2184;BME280;1098;48.940;8.962;2022-11-20T08:32:03;97925.53;;;7.44;100.00
2184;BME280;1098;48.940;8.962;2022-11-20T08:34:31;97931.09;;;7.68;100.00
2184;BME280;1098;48.940;8.962;2022-11-20T08:37:01;97933.84;;;7.61;100.00
2184;BME280;1098;48.940;8.962;2022-11-20T08:39:30;97939.72;;;7.51;100.00
2184;BME280;1098;48.940;8.962;2022-11-20T08:41:59;97934.66;;;7.62;100.00
2184;BME280;1098;48.940;8.962;2022-11-20T08:44:27;97942.34;;;7.58;100.00
2184;BME280;1098;48.940;8.962;2022-11-20T08:46:55;97941.13;;;7.54;100.00
2184;BME280;1098;48.940;8.962;2022-11-20T08:49:23;97938.75;;;7.46;100.00
2184;BME280;1098;48.940;8.962;2022-11-20T08:51:51;97949.53;;;7.64;100.00
2184;BME280;1098;48.940;8.962;2022-11-20T08:54:21;97951.56;;;7.69;100.00
2184;BME280;1098;48.940;8.962;2022-11-20T08:56:50;97954.75;;;7.59;100.00
2184;BME280;1098;48.940;8.962;2022-11-20T08:59:19;97954.69;;;7.66;100.00
2184;BME280;1098;48.940;8.962;2022-11-20T09:02:07;97953.03;;;7.89;100.00
2184;BME280;1098;48.940;8.962;2022-11-20T09:04:35;97950.59;;;7.81;100.00
2184;BME280;1098;48.940;8.962;2022-11-20T09:07:03;97954.59;;;7.72;100.00
2184;BME280;1098;48.940;8.962;2022-11-20T09:09:31;97961.50;;;7.68;100.00
2184;BME280;1098;48.940;8.962;2022-11-20T09:12:00;97954.00;;;7.70;100.00
2184;BME280;1098;48.940;8.962;2022-11-20T09:14:30;97946.34;;;7.92;100.00
2184;BME280;1098;48.940;8.962;2022-11-20T09:16:58;97949.84;;;7.92;100.00
2184;BME280;1098;48.940;8.962;2022-11-20T09:19:26;97958.03;;;8.04;100.00
2184;BME280;1098;48.940;8.962;2022-11-20T09:22:09;97955.97;;;7.81;100.00
2184;BME280;1098;48.940;8.962;2022-11-20T09:24:37;97956.53;;;8.08;100.00
2184;BME280;1098;48.940;8.962;2022-11-20T09:27:05;97959.78;;;7.92;100.00
2184;BME280;1098;48.940;8.962;2022-11-20T09:29:34;97959.88;;;8.22;100.00
2184;BME280;1098;48.940;8.962;2022-11-20T09:32:03;97963.56;;;8.27;100.00
2184;BME280;1098;48.940;8.962;2022-11-20T09:34:31;97962.75;;;8.09;100.00
2184;BME280;1098;48.940;8.962;2022-11-20T09:36:59;97965.28;;;8.22;100.00
2184;BME280;1098;48.940;8.962;2022-11-20T09:39:33;97960.34;;;8.19;100.00
2184;BME280;1098;48.940;8.962;2022-11-20T09:42:12;97980.47;;;7.91;100.00
2184;BME280;1098;48.940;8.962;2022-11-20T09:44:55;97967.19;;;7.97;100.00
2184;BME280;1098;48.940;8.962;2022-11-20T09:47:32;97966.16;;;7.98;100.00
2184;BME280;1098;48.940;8.962;2022-11-20T09:50:10;97966.81;;;7.93;100.00
2184;BME280;1098;48.940;8.962;2022-11-20T09:52:45;97981.53;;;7.90;100.00
2184;BME280;1098;48.940;8.962;2022-11-20T09:55:15;97980.13;;;7.88;100.00
2184;BME280;1098;48.940;8.962;2022-11-20T09:57:44;97974.31;;;8.09;100.00
2184;BME280;1098;48.940;8.962;2022-11-20T10:00:16;97985.66;;;7.93;100.00
2184;BME280;1098;48.940;8.962;2022-11-20T10:02:47;97983.31;;;7.78;100.00
2184;BME280;1098;48.940;8.962;2022-11-20T10:05:18;97986.34;;;8.07;100.00
2184;BME280;1098;48.940;8.962;2022-11-20T10:07:48;97983.69;;;7.82;100.00
2184;BME280;1098;48.940;8.962;2022-11-20T10:10:26;97974.81;;;8.00;100.00
2184;BME280;1098;48.940;8.962;2022-11-20T10:13:01;97976.69;;;7.99;100.00
2184;BME280;1098;48.940;8.962;2022-11-20T10:15:37;97979.16;;;7.82;100.00
2184;BME280;1098;48.940;8.962;2022-11-20T10:18:16;97983.34;;;7.97;100.00
2184;BME280;1098;48.940;8.962;2022-11-20T10:20:49;97969.22;;;7.83;100.00
2184;BME280;1098;48.940;8.962;2022-11-20T10:26:04;97977.25;;;7.65;100.00
2184;BME280;1098;48.940;8.962;2022-11-20T10:28:37;97979.44;;;7.49;100.00
2184;BME280;1098;48.940;8.962;2022-11-20T10:31:23;97979.00;;;7.52;100.00
2184;BME280;1098;48.940;8.962;2022-11-20T10:33:53;97970.78;;;7.47;100.00
2184;BME280;1098;48.940;8.962;2022-11-20T10:36:38;97964.81;;;7.45;100.00
2184;BME280;1098;48.940;8.962;2022-11-20T10:39:13;97959.25;;;7.40;100.00
2184;BME280;1098;48.940;8.962;2022-11-20T10:41:43;97981.19;;;7.37;100.00
2184;BME280;1098;48.940;8.962;2022-11-20T10:44:15;97974.16;;;7.61;100.00
2184;BME280;1098;48.940;8.962;2022-11-20T10:47:09;97990.78;;;7.51;100.00
2184;BME280;1098;48.940;8.962;2022-11-20T10:49:40;97982.66;;;7.83;100.00
2184;BME280;1098;48.940;8.962;2022-11-20T10:52:11;97980.41;;;7.80;100.00
2184;BME280;1098;48.940;8.962;2022-11-20T10:54:42;97983.06;;;7.62;100.00
2184;BME280;1098;48.940;8.962;2022-11-20T10:57:17;97982.88;;;7.81;100.00
2184;BME280;1098;48.940;8.962;2022-11-20T10:59:53;97978.19;;;7.95;100.00
2184;BME280;1098;48.940;8.962;2022-11-20T11:02:31;97975.72;;;7.93;100.00
2184;BME280;1098;48.940;8.962;2022-11-20T11:05:04;97970.59;;;8.10;100.00
2184;BME280;1098;48.940;8.962;2022-11-20T11:07:40;97963.78;;;8.44;100.00
2184;BME280;1098;48.940;8.962;2022-11-20T11:10:16;97963.84;;;8.56;100.00
2184;BME280;1098;48.940;8.962;2022-11-20T11:12:46;97955.88;;;8.79;100.00
2184;BME280;1098;48.940;8.962;2022-11-20T11:15:25;97931.84;;;9.19;100.00
2184;BME280;1098;48.940;8.962;2022-11-20T11:17:56;97914.03;;;9.18;100.00
2184;BME280;1098;48.940;8.962;2022-11-20T11:20:25;97926.91;;;9.16;100.00
2184;BME280;1098;48.940;8.962;2022-11-20T11:22:54;97918.75;;;9.35;100.00
2184;BME280;1098;48.940;8.962;2022-11-20T11:25:24;97910.75;;;9.16;100.00
2184;BME280;1098;48.940;8.962;2022-11-20T11:27:54;97904.75;;;9.03;100.00
2184;BME280;1098;48.940;8.962;2022-11-20T11:30:24;97914.53;;;9.39;100.00
2184;BME280;1098;48.940;8.962;2022-11-20T11:33:06;97903.88;;;9.44;100.00
2184;BME280;1098;48.940;8.962;2022-11-20T11:35:43;97896.72;;;9.73;100.00
2184;BME280;1098;48.940;8.962;2022-11-20T11:38:21;97876.53;;;9.75;100.00
2184;BME280;1098;48.940;8.962;2022-11-20T11:40:53;97895.56;;;9.34;100.00
2184;BME280;1098;48.940;8.962;2022-11-20T11:43:25;97905.78;;;8.90;100.00
2184;BME280;1098;48.940;8.962;2022-11-20T11:46:25;97894.03;;;8.73;100.00
2184;BME280;1098;48.940;8.962;2022-11-20T11:48:58;97887.84;;;8.95;100.00
2184;BME280;1098;48.940;8.962;2022-11-20T11:51:36;97881.91;;;9.05;100.00
2184;BME280;1098;48.940;8.962;2022-11-20T11:54:17;97880.44;;;9.56;100.00
2184;BME280;1098;48.940;8.962;2022-11-20T11:56:49;97879.84;;;9.30;100.00
2184;BME280;1098;48.940;8.962;2022-11-20T11:59:23;97881.72;;;9.53;100.00
2184;BME280;1098;48.940;8.962;2022-11-20T12:01:57;97872.16;;;9.97;100.00
2184;BME280;1098;48.940;8.962;2022-11-20T12:04:40;97870.41;;;10.88;100.00
2184;BME280;1098;48.940;8.962;2022-11-20T12:07:13;97873.88;;;10.27;100.00
2184;BME280;1098;48.940;8.962;2022-11-20T12:10:04;97868.09;;;10.35;100.00
2184;BME280;1098;48.940;8.962;2022-11-20T12:12:37;97872.47;;;10.13;100.00
2184;BME280;1098;48.940;8.962;2022-11-20T12:15:11;97860.94;;;11.19;100.00
2184;BME280;1098;48.940;8.962;2022-11-20T12:17:39;97846.41;;;10.75;100.00
2184;BME280;1098;48.940;8.962;2022-11-20T12:20:13;97860.25;;;11.62;100.00
2184;BME280;1098;48.940;8.962;2022-11-20T12:22:48;97864.38;;;10.98;100.00
2184;BME280;1098;48.940;8.962;2022-11-20T12:25:23;97870.09;;;11.01;100.00
2184;BME280;1098;48.940;8.962;2022-11-20T12:28:13;97866.00;;;11.32;100.00
2184;BME280;1098;48.940;8.962;2022-11-20T12:30:58;97863.63;;;11.02;100.00
2184;BME280;1098;48.940;8.962;2022-11-20T12:33:46;97862.91;;;10.62;100.00
2184;BME280;1098;48.940;8.962;2022-11-20T12:36:27;97864.63;;;10.96;100.00
2184;BME280;1098;48.940;8.962;2022-11-20T12:39:27;97860.19;;;11.41;100.00
2184;BME280;1098;48.940;8.962;2022-11-20T12:42:13;97863.41;;;11.21;100.00
2184;BME280;1098;48.940;8.962;2022-11-20T12:45:14;97860.19;;;11.24;100.00
2184;BME280;1098;48.940;8.962;2022-11-20T12:48:11;97862.44;;;10.37;100.00
2184;BME280;1098;48.940;8.962;2022-11-20T12:50:51;97857.69;;;10.15;100.00
2184;BME280;1098;48.940;8.962;2022-11-20T12:53:48;97879.47;;;9.27;100.00
2184;BME280;1098;48.940;8.962;2022-11-20T12:56:31;97872.19;;;9.39;100.00
2184;BME280;1098;48.940;8.962;2022-11-20T12:59:21;97875.28;;;9.54;100.00
2184;BME280;1098;48.940;8.962;2022-11-20T13:01:55;97868.41;;;9.87;100.00
2184;BME280;1098;48.940;8.962;2022-11-20T13:04:51;97873.34;;;9.78;100.00
2184;BME280;1098;48.940;8.962;2022-11-20T13:07:27;97869.88;;;9.43;100.00
2184;BME280;1098;48.940;8.962;2022-11-20T13:09:58;97871.38;;;9.15;100.00
2184;BME280;1098;48.940;8.962;2022-11-20T13:12:34;97873.84;;;9.40;100.00
2184;BME280;1098;48.940;8.962;2022-11-20T13:15:14;97868.78;;;9.20;100.00
2184;BME280;1098;48.940;8.962;2022-11-20T13:17:48;97852.84;;;9.19;100.00
2184;BME280;1098;48.940;8.962;2022-11-20T13:20:20;97864.34;;;9.38;100.00
2184;BME280;1098;48.940;8.962;2022-11-20T13:22:50;97860.59;;;9.39;100.00
2184;BME280;1098;48.940;8.962;2022-11-20T13:25:24;97851.56;;;9.45;100.00
2184;BME280;1098;48.940;8.962;2022-11-20T13:27:54;97848.66;;;9.11;100.00
2184;BME280;1098;48.940;8.962;2022-11-20T13:30:24;97840.56;;;9.23;100.00
2184;BME280;1098;48.940;8.962;2022-11-20T13:32:54;97844.41;;;8.92;100.00
2184;BME280;1098;48.940;8.962;2022-11-20T13:35:29;97843.75;;;9.32;100.00
2184;BME280;1098;48.940;8.962;2022-11-20T13:38:04;97836.44;;;8.97;100.00
2184;BME280;1098;48.940;8.962;2022-11-20T13:40:36;97840.19;;;8.96;100.00
2184;BME280;1098;48.940;8.962;2022-11-20T13:43:16;97836.88;;;8.94;100.00
2184;BME280;1098;48.940;8.962;2022-11-20T13:45:55;97827.56;;;9.08;100.00
2184;BME280;1098;48.940;8.962;2022-11-20T13:48:26;97836.44;;;8.97;100.00